Time;durP1;ratioP1;P1;durP2;ratioP2;P2;SDS_P1;SDS_P2;PMS_P1;PMS_P2;Temp;Humidity;BMP_temperature;BMP_pressure;BME280_temperature;BME280_humidity;BME280_pressure;Samples;Min_cycle;Max_cycle;Signal;HPM_P1;HPM_P2
2024/04/16 00:04:38;;;;;;;;;;;20.60;33.60;;;;;;23187893;25;19926;-57
2024/04/16 00:14:39;;;;;;;;;;;20.50;34.30;;;;;;23189479;25;19926;-57
2024/04/16 00:24:40;;;;;;;;;;;20.40;36.10;;;;;;23187972;25;19926;-57
2024/04/16 00:34:42;;;;;;;;;;;20.20;39.30;;;;;;23187292;25;20364;-56
2024/04/16 00:44:43;;;;;;;;;;;19.90;42.30;;;;;;23186391;25;19941;-56
2024/04/16 00:54:44;;;;;;;;;;;19.60;44.30;;;;;;23185704;25;19945;-57
2024/04/16 01:04:47;;;;;;;;;;;19.40;45.30;;;;;;23184993;25;20403;-56
2024/04/16 01:14:48;;;;;;;;;;;19.20;46.30;;;;;;23182731;25;19938;-57
2024/04/16 01:24:50;;;;;;;;;;;20.00;42.60;;;;;;23196451;25;19933;-56
2024/04/16 01:34:51;;;;;;;;;;;19.60;41.90;;;;;;23197042;25;19954;-57
2024/04/16 01:44:55;;;;;;;;;;;19.20;41.90;;;;;;23196525;25;20360;-57
2024/04/16 01:54:56;;;;;;;;;;;19.20;42.40;;;;;;23196119;25;20308;-56
2024/04/16 02:04:57;;;;;;;;;;;19.00;43.10;;;;;;23195200;25;20022;-57
2024/04/16 02:14:58;;;;;;;;;;;18.90;43.40;;;;;;23196114;25;19934;-55
2024/04/16 02:25:00;;;;;;;;;;;18.90;43.70;;;;;;23195265;25;19930;-58
2024/04/16 02:35:01;;;;;;;;;;;18.90;43.80;;;;;;23193647;25;20340;-58
2024/04/16 02:45:02;;;;;;;;;;;18.80;43.90;;;;;;23194118;25;19933;-56
2024/04/16 02:55:05;;;;;;;;;;;18.70;44.40;;;;;;23193284;25;19970;-56
2024/04/16 03:05:06;;;;;;;;;;;18.60;49.60;;;;;;23191933;25;19942;-57
2024/04/16 03:15:08;;;;;;;;;;;18.10;51.40;;;;;;23190521;25;19926;-56
2024/04/16 03:25:09;;;;;;;;;;;17.80;52.60;;;;;;23189504;25;19963;-56
2024/04/16 03:35:10;;;;;;;;;;;17.60;53.40;;;;;;23189207;25;20419;-57
2024/04/16 03:45:12;;;;;;;;;;;17.30;53.90;;;;;;23186680;25;19933;-58
2024/04/16 03:55:13;;;;;;;;;;;;;;;;;;23187322;25;19927;-56
2024/04/16 04:05:14;;;;;;;;;;;;;;;;;;23187047;25;19931;-56
2024/04/16 04:15:17;;;;;;;;;;;;;;;;;;23186942;25;19933;-57
2024/04/16 04:25:18;;;;;;;;;;;;;;;;;;23186317;25;20248;-56
2024/04/16 04:35:20;;;;;;;;;;;;;;;;;;23186073;25;19987;-57
2024/04/16 04:45:21;;;;;;;;;;;;;;;;;;23185580;25;19926;-56
2024/04/16 04:55:23;;;;;;;;;;;;;;;;;;23183769;25;19933;-56
2024/04/16 05:05:24;;;;;;;;;;;;;;;;;;23183396;25;19930;-57
2024/04/16 05:15:25;;;;;;;;;;;;;;;;;;23183118;25;19926;-56
2024/04/16 05:25:28;;;;;;;;;;;;;;;;;;23182075;25;19938;-57
2024/04/16 05:35:29;;;;;;;;;;;;;;;;;;23183170;25;20359;-56
2024/04/16 05:45:31;;;;;;;;;;;;;;;;;;23181128;25;19942;-57
2024/04/16 05:55:33;;;;;;;;;;;;;;;;;;23180084;25;19933;-56
2024/04/16 06:05:35;;;;;;;;;;;;;;;;;;23183566;25;20324;-57
2024/04/16 06:15:36;;;;;;;;;;;;;;;;;;23195056;25;19926;-56
2024/04/16 06:25:39;;;;;;;;;;;;;;;;;;23193672;25;19938;-57
2024/04/16 06:35:41;;;;;;;;;;;;;;;;;;23193925;25;19926;-56
2024/04/16 06:45:43;;;;;;;;;;;;;;;;;;23192715;25;20256;-56
2024/04/16 06:55:45;;;;;;;;;;;;;;;;;;23191354;25;20348;-57
2024/04/16 07:05:47;;;;;;;;;;;;;;;;;;23190003;25;19931;-56
2024/04/16 07:15:48;;;;;;;;;;;;;;;;;;23189113;25;19934;-56
2024/04/16 07:25:50;;;;;;;;;;;;;;;;;;23189014;25;19938;-57
2024/04/16 07:35:54;;;;;;;;;;;;;;;;;;23188565;25;19926;-56
2024/04/16 07:45:56;;;;;;;;;;;;;;;;;;23187386;25;19926;-57
2024/04/16 07:55:57;;;;;;;;;;;;;;;;;;23186710;25;19926;-55
2024/04/16 08:05:59;;;;;;;;;;;;;;;;;;23185808;25;19934;-57
2024/04/16 08:16:00;;;;;;;;;;;;;;;;;;23186789;25;19934;-56
2024/04/16 08:26:02;;;;;;;;;;;;;;;;;;23185282;25;20251;-57
2024/04/16 08:36:05;;;;;;;;;;;;;;;;;;23183713;25;20427;-56
2024/04/16 08:46:08;;;;;;;;;;;;;;;;;;23183821;25;20038;-56
2024/04/16 08:56:10;;;;;;;;;;;;;;;;;;23182637;25;19930;-56
2024/04/16 09:06:11;;;;;;;;;;;;;;;;;;23182898;25;19930;-56
2024/04/16 09:16:13;;;;;;;;;;;;;;;;;;23183275;25;20368;-57
2024/04/16 09:26:15;;;;;;;;;;;;;;;;;;23181124;25;19930;-56
2024/04/16 09:36:17;;;;;;;;;;;;;;;;;;23180840;25;19926;-56
2024/04/16 09:46:18;;;;;;;;;;;;;;;;;;23195335;25;19994;-57
2024/04/16 09:56:20;;;;;;;;;;;;;;;;;;23195831;25;19931;-56
2024/04/16 10:06:22;;;;;;;;;;;;;;;;;;23193866;25;19926;-56
2024/04/16 10:16:24;;;;;;;;;;;;;;;;;;23192192;25;20383;-54
2024/04/16 10:26:27;;;;;;;;;;;;;;;;;;23191179;25;19926;-54
2024/04/16 10:36:28;;;;;;;;;;;;;;;;;;23191178;25;19998;-54
2024/04/16 10:46:30;;;;;;;;;;;;;;;;;;23190360;25;19930;-53
2024/04/16 10:56:31;;;;;;;;;;;;;;;;;;23189023;25;19930;-58
2024/04/16 11:06:33;;;;;;;;;;;;;;;;;;23064429;25;19939;-56
2024/04/16 11:16:34;;;;;;;;;;;;;;;;;;23031925;25;20372;-56
2024/04/16 11:26:35;;;;;;;;;;;;;;;;;;23031440;25;19927;-55
2024/04/16 11:36:38;;;;;;;;;;;;;;;;;;23032376;25;20273;-55
2024/04/16 11:46:40;;;;;;;;;;;;;;;;;;23032009;25;19994;-56
2024/04/16 11:56:41;;;;;;;;;;;;;;;;;;23029880;25;19927;-56
2024/04/16 12:06:44;;;;;;;;;;;;;;;;;;23023336;25;20300;-57
2024/04/16 12:16:46;;;;;;;;;;;;;;;;;;23008490;25;19942;-56
2024/04/16 12:26:48;;;;;;;;;;;;;;;;;;23020236;25;19927;-56
2024/04/16 12:36:49;;;;;;;;;;;;;;;;;;23029411;25;19963;-57
2024/04/16 12:46:52;;;;;;;;;;;;;;;;;;23028418;25;19933;-55
2024/04/16 12:56:56;;;;;;;;;;;;;;;;;;23027224;25;20369;-56
2024/04/16 13:06:57;;;;;;;;;;;;;;;;;;23025887;25;20020;-56
2024/04/16 13:16:59;;;;;;;;;;;;;;;;;;23041399;25;20319;-56
2024/04/16 13:27:02;;;;;;;;;;;;;;;;;;23057177;25;19926;-57
2024/04/16 13:37:04;;;;;;;;;;;;;;;;;;23056693;25;20348;-56
2024/04/16 13:47:05;;;;;;;;;;;;;;;;;;23056042;25;19954;-56
2024/04/16 13:57:08;;;;;;;;;;;;;;;;;;23054919;25;20410;-56
2024/04/16 14:07:10;;;;;;;;;;;;;;;;;;23054138;25;19926;-56
2024/04/16 14:17:12;;;;;;;;;;;;;;;;;;23055781;25;20252;-56
2024/04/16 14:27:15;;;;;;;;;;;;;;;;;;23047209;25;20344;-58
2024/04/16 14:37:17;;;;;;;;;;;;;;;;;;23037665;25;19934;-56
2024/04/16 14:47:20;;;;;;;;;;;;;;;;;;23037125;25;20317;-56
2024/04/16 14:57:23;;;;;;;;;;;;;;;;;;23036653;25;20282;-57
2024/04/16 15:07:25;;;;;;;;;;;;;;;;;;23034844;25;19927;-57
2024/04/16 15:17:27;;;;;;;;;;;;;;;;;;23034779;25;20255;-56
2024/04/16 15:27:28;;;;;;;;;;;;;;;;;;23034134;25;19938;-56
2024/04/16 15:37:30;;;;;;;;;;;;;;;;;;23031813;25;19955;-56
2024/04/16 15:47:32;;;;;;;;;;;;;;;;;;23029463;25;19934;-56
2024/04/16 15:57:35;;;;;;;;;;;;;;;;;;23031631;25;19927;-55
2024/04/16 16:07:37;;;;;;;;;;;;;;;;;;23029202;25;20320;-54
2024/04/16 16:17:39;;;;;;;;;;;;;;;;;;23030139;25;19930;-56
2024/04/16 16:27:41;;;;;;;;;;;;;;;;;;23029362;25;19926;-55
2024/04/16 16:37:42;;;;;;;;;;;;;;;;;;23027528;25;19939;-55
2024/04/16 16:47:43;;;;;;;;;;;;;;;;;;23027322;25;19938;-56
2024/04/16 16:57:47;;;;;;;;;;;;;;;;;;23026596;25;19971;-55
2024/04/16 17:07:48;;;;;;;;;;;;;;;;;;23025890;25;20431;-55
2024/04/16 17:17:49;;;;;;;;;;;;;;;;;;23024265;25;20175;-56
2024/04/16 17:27:52;;;;;;;;;;;;;;;;;;23024066;25;19933;-55
2024/04/16 17:37:55;;;;;;;;;;;;;;;;;;23023981;25;20286;-56
2024/04/16 17:47:59;;;;;;;;;;;;;;;;;;23021095;25;19935;-56
2024/04/16 17:58:00;;;;;;;;;;;;;;;;;;23023088;25;19927;-56
2024/04/16 18:08:03;;;;;;;;;;;;;;;;;;23037876;25;19934;-57
2024/04/16 18:18:05;;;;;;;;;;;;;;;;;;23039567;25;20244;-57
2024/04/16 18:28:07;;;;;;;;;;;;;;;;;;23038645;25;20020;-57
2024/04/16 18:38:12;;;;;;;;;;;;;;;;;;23036625;25;19934;-57
2024/04/16 18:48:13;;;;;;;;;;;;;;;;;;23035880;25;19952;-57
2024/04/16 18:58:15;;;;;;;;;;;;;;;;;;23036096;25;19933;-56
2024/04/16 19:08:17;;;;;;;;;;;;;;;;;;23035252;25;19935;-56
2024/04/16 19:18:18;;;;;;;;;;;;;;;;;;23033720;25;19927;-57
2024/04/16 19:28:19;;;;;;;;;;;;;;;;;;23034263;25;19934;-56
2024/04/16 19:38:22;;;;;;;;;;;;;;;;;;23035270;25;19933;-57
2024/04/16 19:48:24;;;;;;;;;;;;;;;;;;23033482;25;19927;-58
2024/04/16 19:58:25;;;;;;;;;;;;;;;;;;23033069;25;19927;-56
2024/04/16 20:08:26;;;;;;;;;;;;;;;;;;23032676;25;19955;-56
2024/04/16 20:18:28;;;;;;;;;;;;;;;;;;23031847;25;19934;-57
2024/04/16 20:28:29;;;;;;;;;;;;;;;;;;23030405;25;19934;-56
2024/04/16 20:38:31;;;;;;;;;;;;;;;;;;23031932;25;20343;-56
2024/04/16 20:48:32;;;;;;;;;;;;;;;;;;23030382;25;20360;-56
2024/04/16 20:58:33;;;;;;;;;;;;;;;;;;23028414;25;19930;-56
2024/04/16 21:08:34;;;;;;;;;;;;;;;;;;23029674;25;19978;-56
2024/04/16 21:18:36;;;;;;;;;;;;;;;;;;23029681;25;19927;-57
2024/04/16 21:28:38;;;;;;;;;;;;;;;;;;23028425;25;19963;-56
2024/04/16 21:38:39;;;;;;;;;;;;;;;;;;23036178;25;19931;-56
2024/04/16 21:48:40;;;;;;;;;;;;;;;;;;23042131;25;19934;-57
2024/04/16 21:58:41;;;;;;;;;;;;;;;;;;23041872;25;19998;-57
2024/04/16 22:08:43;;;;;;;;;;;;;;;;;;23039195;25;19935;-56
2024/04/16 22:18:44;;;;;;;;;;;;;;;;;;23039346;25;19927;-56
2024/04/16 22:28:45;;;;;;;;;;;;;;;;;;23038027;25;19934;-56
2024/04/16 22:38:47;;;;;;;;;;;;;;;;;;23037374;25;19952;-57
2024/04/16 22:48:48;;;;;;;;;;;;;;;;;;23035470;25;19962;-57
2024/04/16 22:58:49;;;;;;;;;;;;;;;;;;23035904;25;19939;-56
2024/04/16 23:08:50;;;;;;;;;;;;;;;;;;23035858;25;20012;-56
2024/04/16 23:18:52;;;;;;;;;;;;;;;;;;23035972;25;19927;-56
2024/04/16 23:28:53;;;;;;;;;;;;;;;;;;23036203;25;19952;-56
2024/04/16 23:38:54;;;;;;;;;;;;;;;;;;23035899;25;19995;-55
2024/04/16 23:48:56;;;;;;;;;;;;;;;;;;23035229;25;19931;-56
2024/04/16 23:58:57;;;;;;;;;;;;;;;;;;23034589;25;19927;-56
